createdAt,value
2022-08-01T00:00:09.049Z,16.20
2022-08-01T00:02:37.694Z,16.00
2022-08-01T00:05:07.033Z,16.20
2022-08-01T00:07:34.703Z,16.10
2022-08-01T00:10:02.269Z,16.27
2022-08-01T00:12:29.098Z,15.82
2022-08-01T00:14:55.781Z,15.77
2022-08-01T00:17:22.563Z,15.90
2022-08-01T00:19:49.316Z,15.75
2022-08-01T00:22:16.139Z,16.23
2022-08-01T00:24:42.823Z,16.10
2022-08-01T00:27:09.513Z,16.45
2022-08-01T00:30:10.916Z,16.40
2022-08-01T00:32:22.995Z,16.60
2022-08-01T00:34:49.988Z,16.30
2022-08-01T00:37:18.164Z,16.45
2022-08-01T00:39:45.007Z,15.80
2022-08-01T00:42:13.208Z,15.80
2022-08-01T00:44:41.181Z,15.63
2022-08-01T00:47:08.432Z,15.73
2022-08-01T00:49:35.704Z,16.02
2022-08-01T00:52:04.346Z,15.85
2022-08-01T00:54:31.865Z,16.27
2022-08-01T00:56:59.187Z,16.42
2022-08-01T00:59:27.274Z,15.88
2022-08-01T01:01:54.297Z,16.30
2022-08-01T01:04:21.538Z,15.52
2022-08-01T01:07:50.097Z,16.00
2022-08-01T01:10:30.378Z,15.52
2022-08-01T01:13:05.773Z,15.70
2022-08-01T01:15:45.790Z,15.40
2022-08-01T01:18:23.423Z,15.33
2022-08-01T01:21:15.308Z,15.60
2022-08-01T01:24:18.385Z,15.63
2022-08-01T01:26:53.608Z,15.63
2022-08-01T01:29:31.529Z,15.40
2022-08-01T01:32:31.127Z,15.93
2022-08-01T01:34:59.735Z,15.70
2022-08-01T01:37:30.786Z,15.63
2022-08-01T01:39:59.360Z,15.55
2022-08-01T01:42:26.761Z,15.70
2022-08-01T01:44:55.813Z,15.50
2022-08-01T01:47:24.507Z,15.43
2022-08-01T01:49:55.024Z,15.68
2022-08-01T01:52:23.193Z,15.63
2022-08-01T01:54:52.758Z,15.68
2022-08-01T01:57:20.138Z,15.80
2022-08-01T01:59:50.749Z,15.20
2022-08-01T02:02:19.990Z,15.95
2022-08-01T02:04:48.151Z,15.48
2022-08-01T02:07:23.671Z,15.70
2022-08-01T02:09:52.428Z,15.45
2022-08-01T02:12:22.688Z,15.77
2022-08-01T02:14:53.413Z,16.08
2022-08-01T02:17:21.873Z,15.85
2022-08-01T02:19:49.093Z,16.25
2022-08-01T02:22:38.374Z,16.17
2022-08-01T02:25:30.337Z,16.00
2022-08-01T02:28:14.544Z,15.82
2022-08-01T02:30:47.168Z,16.55
2022-08-01T02:33:19.476Z,16.52
2022-08-01T02:36:29.656Z,16.42
2022-08-01T02:38:43.408Z,16.42
2022-08-01T02:41:13.928Z,16.75
2022-08-01T02:43:46.979Z,16.48
2022-08-01T02:46:29.158Z,16.17
2022-08-01T02:48:57.890Z,15.77
2022-08-01T02:51:27.082Z,16.73
2022-08-01T02:53:55.960Z,16.42
2022-08-01T02:56:24.331Z,16.92
2022-08-01T02:58:52.891Z,17.10
2022-08-01T03:01:22.221Z,14.48
2022-08-01T03:03:49.303Z,14.30
2022-08-01T03:06:18.213Z,17.23
2022-08-01T03:08:47.861Z,17.52
2022-08-01T03:11:16.120Z,17.23
2022-08-01T03:13:46.059Z,16.80
2022-08-01T03:16:13.794Z,17.40
2022-08-01T03:18:43.230Z,17.50
2022-08-01T03:21:11.175Z,17.73
2022-08-01T03:23:39.459Z,17.60
2022-08-01T03:26:07.107Z,17.15
2022-08-01T03:28:34.381Z,17.45
2022-08-01T03:31:02.977Z,17.80
2022-08-01T03:33:30.421Z,16.77
2022-08-01T03:36:01.188Z,17.13
2022-08-01T03:41:09.431Z,17.10
2022-08-01T03:43:47.951Z,18.03
2022-08-01T03:46:23.222Z,17.75
2022-08-01T03:48:56.248Z,18.08
2022-08-01T03:51:24.155Z,17.50
2022-08-01T03:53:53.532Z,18.58
2022-08-01T03:56:21.776Z,18.10
2022-08-01T03:58:50.268Z,19.17
2022-08-01T04:01:18.501Z,18.38
2022-08-01T04:03:46.039Z,18.08
2022-08-01T04:06:15.009Z,17.65
2022-08-01T04:08:42.305Z,19.48
2022-08-01T04:11:10.426Z,18.02
2022-08-01T04:13:38.482Z,16.70
2022-08-01T04:16:05.850Z,18.58
2022-08-01T04:18:33.166Z,18.45
2022-08-01T04:20:59.991Z,19.00
2022-08-01T04:23:28.813Z,17.98
2022-08-01T04:25:56.909Z,18.10
2022-08-01T04:28:25.184Z,18.02
2022-08-01T04:30:59.735Z,16.75
2022-08-01T04:33:31.075Z,16.40
2022-08-01T04:36:02.639Z,18.33
2022-08-01T04:38:33.905Z,17.30
2022-08-01T04:41:08.732Z,18.38
2022-08-01T04:43:40.448Z,18.02
2022-08-01T04:46:08.802Z,18.25
2022-08-01T04:48:38.293Z,18.15
2022-08-01T04:51:05.678Z,17.58
2022-08-01T04:53:33.492Z,17.40
2022-08-01T04:56:00.279Z,17.40
2022-08-01T04:58:26.954Z,17.73
2022-08-01T05:00:53.760Z,25.17
2022-08-01T05:03:20.544Z,17.48
2022-08-01T05:05:47.312Z,16.50
2022-08-01T05:08:14.124Z,18.65
2022-08-01T05:10:40.987Z,16.52
2022-08-01T05:13:07.774Z,15.68
2022-08-01T05:15:37.703Z,16.10
2022-08-01T05:18:04.804Z,15.70
2022-08-01T05:20:31.554Z,15.07
2022-08-01T05:22:58.481Z,22.55
2022-08-01T05:25:53.075Z,16.65
2022-08-01T05:28:12.756Z,14.63
2022-08-01T05:30:46.239Z,14.70
2022-08-01T05:33:13.041Z,14.63
2022-08-01T05:35:47.893Z,15.93
2022-08-01T05:38:16.837Z,14.88
2022-08-01T05:40:43.671Z,15.10
2022-08-01T05:43:10.399Z,15.75
2022-08-01T05:45:37.627Z,15.57
2022-08-01T05:48:04.371Z,15.55
2022-08-01T05:50:32.216Z,15.27
2022-08-01T05:52:58.914Z,15.95
2022-08-01T05:55:25.689Z,15.70
2022-08-01T05:57:52.401Z,15.70
2022-08-01T06:00:19.278Z,15.40
2022-08-01T06:02:46.165Z,15.43
2022-08-01T06:05:13.651Z,15.40
2022-08-01T06:07:41.206Z,14.70
2022-08-01T06:10:09.438Z,15.85
2022-08-01T06:12:37.318Z,16.02
2022-08-01T06:15:05.631Z,16.58
2022-08-01T06:17:32.369Z,14.65
2022-08-01T06:19:59.236Z,15.52
2022-08-01T06:22:25.959Z,14.90
2022-08-01T06:24:52.844Z,14.90
2022-08-01T06:27:21.772Z,14.95
2022-08-01T06:29:51.291Z,14.02
2022-08-01T06:32:27.159Z,13.77
2022-08-01T06:34:56.149Z,14.40
2022-08-01T06:37:23.620Z,14.32
2022-08-01T06:39:50.976Z,18.23
2022-08-01T06:42:18.527Z,17.73
2022-08-01T06:44:45.803Z,16.50
2022-08-01T06:47:12.881Z,16.88
2022-08-01T06:49:39.622Z,18.27
2022-08-01T06:52:06.775Z,17.55
2022-08-01T06:54:33.844Z,17.90
2022-08-01T06:57:00.578Z,17.42
2022-08-01T06:59:27.321Z,18.60
2022-08-01T07:01:54.072Z,18.35
2022-08-01T07:04:20.791Z,17.95
2022-08-01T07:06:51.935Z,16.67
2022-08-01T07:09:18.783Z,16.83
2022-08-01T07:11:45.553Z,17.08
2022-08-01T07:14:15.078Z,17.00
2022-08-01T07:16:42.006Z,17.90
2022-08-01T07:19:09.041Z,17.38
2022-08-01T07:21:38.896Z,17.80
2022-08-01T07:24:13.830Z,16.33
2022-08-01T07:26:52.553Z,16.92
2022-08-01T07:29:27.439Z,17.20
2022-08-01T07:31:56.181Z,17.15
2022-08-01T07:34:24.136Z,16.50
2022-08-01T07:36:51.870Z,17.75
2022-08-01T07:39:19.101Z,17.27
2022-08-01T07:42:06.364Z,16.30
2022-08-01T07:44:32.786Z,16.20
2022-08-01T07:46:59.846Z,22.95
2022-08-01T07:49:26.850Z,17.58
2022-08-01T07:52:04.148Z,17.45
2022-08-01T07:54:35.472Z,16.83
2022-08-01T07:57:05.204Z,15.80
2022-08-01T07:59:32.082Z,16.70
2022-08-01T08:01:59.026Z,16.63
2022-08-01T08:04:26.602Z,15.63
2022-08-01T08:06:54.663Z,16.55
2022-08-01T08:09:22.076Z,16.55
2022-08-01T08:11:51.858Z,16.05
2022-08-01T08:14:25.665Z,15.98
2022-08-01T08:16:59.569Z,16.33
2022-08-01T08:19:37.453Z,17.30
2022-08-01T08:22:07.070Z,20.02
2022-08-01T08:24:34.413Z,18.40
2022-08-01T08:27:02.233Z,17.80
2022-08-01T08:29:32.812Z,18.42
2022-08-01T08:32:01.292Z,16.60
2022-08-01T08:34:30.956Z,19.48
2022-08-01T08:36:59.890Z,17.13
2022-08-01T08:39:27.545Z,16.30
2022-08-01T08:41:54.559Z,16.33
2022-08-01T08:44:22.291Z,15.85
2022-08-01T08:46:52.489Z,16.90
2022-08-01T08:49:23.395Z,17.20
2022-08-01T08:51:52.142Z,16.50
2022-08-01T08:54:29.141Z,16.38
2022-08-01T08:57:00.132Z,16.60
2022-08-01T08:59:27.700Z,14.93
2022-08-01T09:01:54.808Z,15.68
2022-08-01T09:04:26.422Z,16.73
2022-08-01T09:06:55.015Z,16.60
2022-08-01T09:09:23.492Z,15.75
2022-08-01T09:11:56.979Z,16.88
2022-08-01T09:14:33.706Z,17.25
2022-08-01T09:17:12.126Z,14.50
2022-08-01T09:19:43.242Z,15.90
2022-08-01T09:22:12.501Z,14.90
2022-08-01T09:24:41.697Z,14.02
2022-08-01T09:27:21.954Z,13.88
2022-08-01T09:30:01.587Z,16.52
2022-08-01T09:32:35.881Z,14.60
2022-08-01T09:35:31.618Z,15.48
2022-08-01T09:38:22.380Z,15.60
2022-08-01T09:41:01.419Z,14.57
2022-08-01T09:43:32.882Z,16.20
2022-08-01T09:46:01.237Z,17.05
2022-08-01T09:48:30.196Z,17.27
2022-08-01T09:51:04.131Z,16.58
2022-08-01T09:53:51.988Z,16.20
2022-08-01T09:56:22.678Z,16.13
2022-08-01T09:58:59.520Z,15.77
2022-08-01T10:01:37.091Z,17.70
2022-08-01T10:04:15.142Z,15.80
2022-08-01T10:06:45.059Z,16.20
2022-08-01T10:09:14.491Z,15.05
2022-08-01T10:11:44.945Z,15.15
2022-08-01T10:14:18.097Z,15.50
2022-08-01T10:16:53.163Z,15.30
2022-08-01T10:19:24.749Z,16.40
2022-08-01T10:21:58.953Z,16.35
2022-08-01T10:24:30.219Z,15.98
2022-08-01T10:27:06.002Z,16.52
2022-08-01T10:30:05.468Z,15.73
2022-08-01T10:32:36.871Z,14.48
2022-08-01T10:35:07.573Z,15.98
2022-08-01T10:37:52.453Z,14.43
2022-08-01T10:40:31.673Z,15.27
2022-08-01T10:42:59.865Z,13.90
2022-08-01T10:45:27.800Z,13.38
2022-08-01T10:48:00.264Z,13.45
2022-08-01T10:50:35.502Z,13.13
2022-08-01T10:53:16.062Z,13.07
2022-08-01T10:55:50.847Z,15.60
2022-08-01T10:58:42.687Z,14.98
2022-08-01T11:01:27.992Z,12.98
2022-08-01T11:04:01.065Z,13.82
2022-08-01T11:06:34.085Z,14.38
2022-08-01T11:09:22.322Z,13.20
2022-08-01T11:12:23.361Z,12.63
2022-08-01T11:14:59.630Z,13.70
2022-08-01T11:17:37.809Z,13.02
2022-08-01T11:20:12.963Z,13.90
2022-08-01T11:23:02.896Z,13.30
2022-08-01T11:26:03.587Z,14.13
2022-08-01T11:28:34.621Z,17.08
2022-08-01T11:31:10.785Z,13.20
2022-08-01T11:33:46.955Z,13.85
2022-08-01T11:36:14.710Z,13.95
2022-08-01T11:38:50.674Z,13.63
2022-08-01T11:41:23.546Z,13.73
2022-08-01T11:44:09.221Z,12.52
2022-08-01T11:47:10.243Z,13.05
2022-08-01T11:49:38.463Z,13.20
2022-08-01T11:52:13.485Z,13.88
2022-08-01T11:54:53.184Z,13.50
2022-08-01T11:57:34.143Z,14.10
2022-08-01T12:00:15.452Z,13.93
2022-08-01T12:02:45.714Z,14.10
2022-08-01T12:05:21.719Z,14.05
2022-08-01T12:07:53.307Z,14.13
2022-08-01T12:10:22.027Z,14.90
2022-08-01T12:13:00.307Z,15.38
2022-08-01T12:15:34.882Z,14.40
2022-08-01T12:18:07.090Z,16.02
2022-08-01T12:20:55.727Z,17.05
2022-08-01T12:23:24.225Z,15.50
2022-08-01T12:25:58.878Z,15.32
2022-08-01T12:28:31.037Z,16.90
2022-08-01T12:31:02.268Z,15.02
2022-08-01T12:33:29.041Z,15.55
2022-08-01T12:35:55.818Z,15.20
2022-08-01T12:38:25.887Z,15.07
2022-08-01T12:40:53.553Z,14.27
2022-08-01T12:43:28.298Z,14.00
2022-08-01T12:46:00.973Z,14.85
2022-08-01T12:48:31.337Z,14.73
2022-08-01T12:51:01.487Z,14.73
2022-08-01T12:53:40.665Z,14.65
2022-08-01T12:56:11.426Z,15.18
2022-08-01T12:58:38.604Z,16.38
2022-08-01T13:01:08.436Z,15.73
2022-08-01T13:03:35.596Z,15.52
2022-08-01T13:06:10.855Z,15.80
2022-08-01T13:08:39.525Z,16.00
2022-08-01T13:11:18.277Z,16.25
2022-08-01T13:13:52.868Z,16.98
2022-08-01T13:16:31.082Z,16.48
2022-08-01T13:19:06.814Z,15.48
2022-08-01T13:21:34.442Z,15.82
2022-08-01T13:24:30.481Z,16.73
2022-08-01T13:27:04.849Z,15.57
2022-08-01T13:29:46.423Z,16.77
2022-08-01T13:32:27.575Z,15.30
2022-08-01T13:35:08.773Z,16.10
2022-08-01T13:37:37.173Z,17.65
2022-08-01T13:40:07.064Z,13.30
2022-08-01T13:42:34.034Z,14.38
2022-08-01T13:45:00.876Z,18.05
2022-08-01T13:47:31.144Z,16.60
2022-08-01T13:50:02.901Z,15.45
2022-08-01T13:52:30.266Z,14.48
2022-08-01T13:54:57.026Z,15.70
2022-08-01T13:57:23.952Z,15.20
2022-08-01T13:59:50.650Z,15.70
2022-08-01T14:02:17.402Z,15.20
2022-08-01T14:04:44.118Z,15.93
2022-08-01T14:07:14.463Z,14.95
2022-08-01T14:09:45.088Z,15.73
2022-08-01T14:12:28.905Z,15.90
2022-08-01T14:14:55.716Z,14.43
2022-08-01T14:17:22.488Z,16.20
2022-08-01T14:19:49.465Z,16.15
2022-08-01T14:22:16.374Z,14.05
2022-08-01T14:24:43.236Z,13.77
2022-08-01T14:27:11.337Z,13.77
2022-08-01T14:29:59.983Z,14.00
2022-08-01T14:32:28.555Z,11.57
2022-08-01T14:34:57.049Z,13.80
2022-08-01T14:37:28.913Z,14.50
2022-08-01T14:39:58.818Z,14.00
2022-08-01T14:42:26.358Z,13.52
2022-08-01T14:44:53.230Z,12.90
2022-08-01T14:47:21.811Z,12.73
2022-08-01T14:49:50.372Z,12.57
2022-08-01T14:52:17.400Z,13.63
2022-08-01T14:54:44.097Z,13.38
2022-08-01T14:57:10.844Z,13.18
2022-08-01T14:59:37.680Z,13.40
2022-08-01T15:02:04.753Z,13.10
2022-08-01T15:04:31.816Z,13.38
2022-08-01T15:06:58.535Z,12.80
2022-08-01T15:09:25.322Z,12.90
2022-08-01T15:11:52.081Z,13.38
2022-08-01T15:14:37.628Z,13.65
2022-08-01T15:17:04.597Z,13.43
2022-08-01T15:19:31.299Z,12.98
2022-08-01T15:21:58.023Z,13.35
2022-08-01T15:24:28.407Z,13.23
2022-08-01T15:26:55.703Z,13.40
2022-08-01T15:29:22.537Z,14.13
2022-08-01T15:31:49.479Z,13.10
2022-08-01T15:34:16.548Z,12.93
2022-08-01T15:36:46.437Z,12.50
2022-08-01T15:39:16.046Z,13.05
2022-08-01T15:41:42.889Z,13.52
2022-08-01T15:44:09.952Z,14.02
2022-08-01T15:46:37.954Z,13.82
2022-08-01T15:49:06.235Z,13.25
2022-08-01T15:51:34.119Z,13.70
2022-08-01T15:54:09.249Z,13.80
2022-08-01T15:56:39.936Z,13.68
2022-08-01T15:59:06.788Z,13.52
2022-08-01T16:01:33.613Z,13.77
2022-08-01T16:04:00.690Z,13.82
2022-08-01T16:06:27.921Z,14.23
2022-08-01T16:08:55.387Z,13.57
2022-08-01T16:11:24.038Z,13.82
2022-08-01T16:13:51.285Z,13.82
2022-08-01T16:16:18.561Z,14.52
2022-08-01T16:18:45.300Z,14.70
2022-08-01T16:21:20.662Z,14.88
2022-08-01T16:23:47.392Z,14.63
2022-08-01T16:26:25.911Z,13.65
2022-08-01T16:28:57.253Z,13.30
2022-08-01T16:31:42.194Z,13.20
2022-08-01T16:34:11.397Z,12.68
2022-08-01T16:36:41.919Z,13.02
2022-08-01T16:39:09.979Z,13.05
2022-08-01T16:41:37.551Z,13.80
2022-08-01T16:44:04.865Z,13.18
2022-08-01T16:46:33.338Z,13.10
2022-08-01T16:49:00.219Z,13.32
2022-08-01T16:51:27.588Z,13.73
2022-08-01T16:53:54.525Z,14.07
2022-08-01T16:56:21.720Z,13.93
2022-08-01T16:58:49.890Z,13.85
2022-08-01T17:01:59.012Z,14.30
2022-08-01T17:04:05.327Z,14.45
2022-08-01T17:06:34.193Z,14.15
2022-08-01T17:09:00.954Z,14.65
2022-08-01T17:11:28.421Z,14.10
2022-08-01T17:13:55.234Z,14.90
2022-08-01T17:16:22.778Z,15.50
2022-08-01T17:18:49.593Z,14.80
2022-08-01T17:21:16.273Z,15.07
2022-08-01T17:23:43.042Z,14.68
2022-08-01T17:26:09.739Z,14.23
2022-08-01T17:28:37.570Z,14.25
2022-08-01T17:31:10.357Z,13.40
2022-08-01T17:33:45.664Z,15.10
2022-08-01T17:36:15.055Z,14.65
2022-08-01T17:38:41.849Z,15.07
2022-08-01T17:41:08.901Z,14.65
2022-08-01T17:43:35.735Z,14.60
2022-08-01T17:46:02.750Z,14.23
2022-08-01T17:48:29.562Z,14.35
2022-08-01T17:50:56.301Z,13.95
2022-08-01T17:53:24.090Z,14.73
2022-08-01T17:55:56.116Z,14.68
2022-08-01T17:58:36.811Z,14.48
2022-08-01T18:01:13.170Z,14.45
2022-08-01T18:03:40.869Z,14.50
2022-08-01T18:06:09.876Z,14.20
2022-08-01T18:08:40.475Z,13.70
2022-08-01T18:13:36.203Z,13.48
2022-08-01T18:16:06.864Z,13.85
2022-08-01T18:21:04.512Z,13.70
2022-08-01T18:23:33.592Z,13.45
2022-08-01T18:26:02.442Z,14.05
2022-08-01T18:28:36.538Z,14.27
2022-08-01T18:31:06.200Z,14.82
2022-08-01T18:33:33.988Z,14.32
2022-08-01T18:36:03.551Z,14.35
2022-08-01T18:38:33.149Z,14.40
2022-08-01T18:41:00.922Z,14.55
2022-08-01T18:43:27.825Z,14.40
2022-08-01T18:45:57.283Z,14.82
2022-08-01T18:48:24.517Z,14.73
2022-08-01T18:50:51.540Z,14.65
2022-08-01T18:53:18.867Z,15.05
2022-08-01T18:55:45.593Z,14.27
2022-08-01T18:58:12.451Z,13.70
2022-08-01T19:00:40.071Z,13.68
2022-08-01T19:03:07.869Z,13.38
2022-08-01T19:05:36.055Z,13.52
2022-08-01T19:08:06.972Z,13.88
2022-08-01T19:10:39.676Z,13.68
2022-08-01T19:13:08.057Z,13.60
2022-08-01T19:15:35.721Z,13.70
2022-08-01T19:18:03.338Z,13.55
2022-08-01T19:20:30.662Z,13.70
2022-08-01T19:22:57.609Z,14.00
2022-08-01T19:25:24.530Z,14.13
2022-08-01T19:27:51.935Z,14.15
2022-08-01T19:30:19.424Z,13.93
2022-08-01T19:32:47.585Z,14.27
2022-08-01T19:35:17.027Z,14.10
2022-08-01T19:37:47.185Z,14.27
2022-08-01T19:40:26.637Z,14.67
2022-08-01T19:42:56.449Z,14.18
2022-08-01T19:45:24.845Z,14.50
2022-08-01T19:47:57.355Z,15.13
2022-08-01T19:50:26.842Z,14.73
2022-08-01T19:52:55.720Z,14.65
2022-08-01T19:55:24.228Z,14.65
2022-08-01T19:58:26.419Z,15.02
2022-08-01T20:00:41.264Z,14.57
2022-08-01T20:03:09.644Z,14.80
2022-08-01T20:05:37.392Z,14.30
2022-08-01T20:08:06.673Z,15.07
2022-08-01T20:10:35.805Z,14.80
2022-08-01T20:13:02.657Z,14.05
2022-08-01T20:15:30.078Z,14.55
2022-08-01T20:17:59.945Z,13.73
2022-08-01T20:20:27.413Z,14.10
2022-08-01T20:22:57.339Z,14.70
2022-08-01T20:25:33.562Z,14.63
2022-08-01T20:28:10.401Z,14.70
2022-08-01T20:30:38.923Z,14.32
2022-08-01T20:33:10.848Z,13.85
2022-08-01T20:35:51.658Z,14.35
2022-08-01T20:38:23.094Z,13.88
2022-08-01T20:40:52.731Z,13.90
2022-08-01T20:43:26.138Z,13.57
2022-08-01T20:45:53.048Z,14.75
2022-08-01T20:48:20.445Z,14.07
2022-08-01T20:51:06.892Z,14.30
2022-08-01T20:53:36.853Z,14.07
2022-08-01T20:56:09.223Z,14.80
2022-08-01T20:58:58.961Z,14.63
2022-08-01T21:01:48.717Z,15.25
2022-08-01T21:04:35.097Z,15.23
2022-08-01T21:07:18.263Z,14.98
2022-08-01T21:09:55.049Z,14.82
2022-08-01T21:12:28.310Z,14.90
2022-08-01T21:15:01.223Z,20.92
2022-08-01T21:17:46.662Z,14.40
2022-08-01T21:20:15.011Z,14.60
2022-08-01T21:22:53.173Z,14.70
2022-08-01T21:25:26.121Z,14.20
2022-08-01T21:27:54.863Z,14.52
2022-08-01T21:30:23.961Z,14.77
2022-08-01T21:32:52.337Z,14.52
2022-08-01T21:35:22.777Z,14.15
2022-08-01T21:37:52.536Z,14.35
2022-08-01T21:40:21.618Z,14.57
2022-08-01T21:42:51.163Z,14.82
2022-08-01T21:45:22.873Z,15.18
2022-08-01T21:47:50.775Z,14.73
2022-08-01T21:50:18.209Z,14.85
2022-08-01T21:52:50.525Z,14.55
2022-08-01T21:55:51.802Z,14.35
2022-08-01T21:58:33.143Z,15.13
2022-08-01T22:03:47.690Z,14.57
2022-08-01T22:06:16.016Z,15.07
2022-08-01T22:08:56.451Z,14.63
2022-08-01T22:11:28.004Z,15.13
2022-08-01T22:13:58.710Z,14.40
2022-08-01T22:16:26.851Z,15.50
2022-08-01T22:18:54.320Z,15.32
2022-08-01T22:21:21.533Z,15.40
2022-08-01T22:23:51.892Z,15.45
2022-08-01T22:26:25.740Z,14.90
2022-08-01T22:28:55.798Z,15.20
2022-08-01T22:31:22.766Z,15.15
2022-08-01T22:33:49.908Z,15.05
2022-08-01T22:36:17.347Z,14.80
2022-08-01T22:38:44.173Z,14.43
2022-08-01T22:41:15.736Z,15.45
2022-08-01T22:43:50.590Z,15.10
2022-08-01T22:46:22.442Z,14.57
2022-08-01T22:49:00.756Z,14.65
2022-08-01T22:51:55.636Z,15.43
2022-08-01T22:54:30.346Z,14.45
2022-08-01T22:57:01.172Z,14.63
2022-08-01T22:59:49.338Z,15.50
2022-08-01T23:02:17.514Z,15.23
2022-08-01T23:04:48.646Z,14.38
2022-08-01T23:07:28.273Z,14.80
2022-08-01T23:09:57.068Z,14.25
2022-08-01T23:12:25.650Z,14.25
2022-08-01T23:14:55.656Z,14.95
2022-08-01T23:17:27.581Z,15.00
2022-08-01T23:20:04.320Z,14.93
2022-08-01T23:22:32.776Z,15.02
2022-08-01T23:25:05.344Z,15.23
2022-08-01T23:27:54.424Z,14.90
2022-08-01T23:30:30.890Z,14.52
2022-08-01T23:32:59.136Z,14.53
2022-08-01T23:35:26.845Z,14.73
2022-08-01T23:38:02.406Z,14.75
2022-08-01T23:40:31.396Z,14.57
2022-08-01T23:42:58.316Z,14.40
2022-08-01T23:45:25.071Z,15.10
2022-08-01T23:47:51.946Z,15.10
2022-08-01T23:50:21.744Z,15.05
2022-08-01T23:52:53.576Z,15.15
2022-08-01T23:55:36.765Z,14.60
2022-08-01T23:58:06.906Z,15.02
